createdAt,value
2019-01-10T00:01:19.859Z,100012.17
2019-01-10T00:03:49.516Z,100010.76
2019-01-10T00:06:19.306Z,100019.21
2019-01-10T00:08:49.559Z,100036.39
2019-01-10T00:11:19.871Z,100032.75
2019-01-10T00:13:49.938Z,100021.61
2019-01-10T00:16:19.925Z,100013.00
2019-01-10T00:18:49.627Z,100010.98
2019-01-10T00:21:19.449Z,100013.79
2019-01-10T00:23:49.313Z,100014.01
2019-01-10T00:26:19.098Z,100014.73
2019-01-10T00:28:48.872Z,100014.61
2019-01-10T00:31:18.824Z,100012.17
2019-01-10T00:33:48.639Z,100018.23
2019-01-10T00:36:18.342Z,100015.67
2019-01-10T00:38:48.301Z,100012.87
2019-01-10T00:41:18.061Z,100010.66
2019-01-10T00:43:47.762Z,100006.58
2019-01-10T00:46:17.712Z,100001.98
2019-01-10T00:48:47.520Z,100006.30
2019-01-10T00:51:19.430Z,100008.87
2019-01-10T00:53:49.208Z,100003.56
2019-01-10T00:56:19.078Z,100000.55
2019-01-10T00:58:49.002Z,99998.12
2019-01-10T01:01:18.766Z,100000.31
2019-01-10T01:03:48.303Z,99998.25
2019-01-10T01:06:17.921Z,99997.59
2019-01-10T01:08:47.891Z,100002.34
2019-01-10T01:11:17.773Z,99989.11
2019-01-10T01:13:47.472Z,99988.59
2019-01-10T01:16:17.323Z,99986.47
2019-01-10T01:18:46.912Z,99985.13
2019-01-10T01:21:16.826Z,99983.28
2019-01-10T01:23:46.662Z,99987.76
2019-01-10T01:26:16.333Z,99974.06
2019-01-10T01:28:46.143Z,99971.78
2019-01-10T01:31:15.982Z,99968.15
2019-01-10T01:33:45.898Z,99959.62
2019-01-10T01:36:17.048Z,99968.47
2019-01-10T01:38:46.770Z,99959.76
2019-01-10T01:41:16.575Z,99954.94
2019-01-10T01:43:46.419Z,99943.58
2019-01-10T01:46:16.175Z,99953.71
2019-01-10T01:48:46.011Z,99944.42
2019-01-10T01:51:15.772Z,99949.02
2019-01-10T01:53:45.425Z,99950.02
2019-01-10T01:56:15.256Z,99947.17
2019-01-10T01:58:45.363Z,99949.84
2019-01-10T02:01:15.100Z,99938.71
2019-01-10T02:03:45.202Z,99937.42
2019-01-10T02:06:15.062Z,99928.03
2019-01-10T02:08:44.835Z,99926.08
2019-01-10T02:11:14.685Z,99925.84
2019-01-10T02:13:44.344Z,99929.03
2019-01-10T02:16:14.049Z,99921.67
2019-01-10T02:18:44.013Z,99922.66
2019-01-10T02:21:13.776Z,99918.65
2019-01-10T02:23:43.596Z,99916.69
2019-01-10T02:26:13.573Z,99917.70
2019-01-10T02:28:43.248Z,99924.74
2019-01-10T02:31:13.320Z,99931.41
2019-01-10T02:33:43.249Z,99926.88
2019-01-10T02:36:13.025Z,99929.73
2019-01-10T02:38:42.718Z,99926.88
2019-01-10T02:41:12.626Z,99931.86
2019-01-10T02:43:42.469Z,99936.72
2019-01-10T02:46:12.347Z,99933.75
2019-01-10T02:48:42.275Z,99934.94
2019-01-10T02:51:12.258Z,99939.19
2019-01-10T02:53:42.198Z,99926.88
2019-01-10T02:56:14.159Z,99925.19
2019-01-10T02:58:44.266Z,99928.00
2019-01-10T03:01:14.400Z,99926.16
2019-01-10T03:03:44.507Z,99921.23
2019-01-10T03:06:14.382Z,99913.00
2019-01-10T03:08:44.261Z,99918.15
2019-01-10T03:11:14.695Z,99889.03
2019-01-10T03:13:44.656Z,99909.86
2019-01-10T03:16:14.651Z,99900.58
2019-01-10T03:18:44.469Z,99898.28
2019-01-10T03:21:14.398Z,99881.70
2019-01-10T03:23:44.160Z,99873.22
2019-01-10T03:26:13.893Z,99863.05
2019-01-10T03:28:43.841Z,99854.66
2019-01-10T03:31:13.500Z,99863.43
2019-01-10T03:33:43.322Z,99847.36
2019-01-10T03:36:13.081Z,99865.80
2019-01-10T03:38:42.933Z,99875.70
2019-01-10T03:41:12.891Z,99881.45
2019-01-10T03:43:47.460Z,99887.25
2019-01-10T03:46:14.347Z,99879.60
2019-01-10T03:48:44.029Z,99886.73
2019-01-10T03:51:13.688Z,99896.16
2019-01-10T03:53:43.390Z,99899.57
2019-01-10T03:56:13.295Z,99904.92
2019-01-10T03:58:43.065Z,99909.80
2019-01-10T04:01:12.798Z,99906.67
2019-01-10T04:03:42.634Z,99910.53
2019-01-10T04:06:12.432Z,99908.41
2019-01-10T04:08:42.175Z,99900.79
2019-01-10T04:11:12.067Z,99901.23
2019-01-10T04:13:41.997Z,99906.56
2019-01-10T04:16:11.771Z,99906.63
2019-01-10T04:18:41.585Z,99906.35
2019-01-10T04:21:16.866Z,99905.23
2019-01-10T04:23:42.958Z,99903.12
2019-01-10T04:26:12.805Z,99904.30
2019-01-10T04:28:42.758Z,99903.77
2019-01-10T04:31:12.434Z,99908.02
2019-01-10T04:33:42.175Z,99913.62
2019-01-10T04:36:11.946Z,99904.05
2019-01-10T04:38:41.696Z,99883.67
2019-01-10T04:41:11.479Z,99910.88
2019-01-10T04:43:41.202Z,99903.02
2019-01-10T04:46:10.955Z,99904.27
2019-01-10T04:48:40.667Z,99906.58
2019-01-10T04:51:10.228Z,99906.80
2019-01-10T04:53:39.928Z,99908.72
2019-01-10T04:56:09.703Z,99896.99
2019-01-10T04:58:40.824Z,99896.47
2019-01-10T05:01:12.034Z,99897.45
2019-01-10T05:03:42.058Z,99896.92
2019-01-10T05:06:11.773Z,99897.03
2019-01-10T05:08:41.375Z,99900.75
2019-01-10T05:11:11.497Z,99899.95
2019-01-10T05:13:41.333Z,99906.11
2019-01-10T05:16:12.472Z,99914.05
2019-01-10T05:18:42.455Z,99915.68
2019-01-10T05:21:12.301Z,99918.67
2019-01-10T05:23:42.115Z,99918.11
2019-01-10T05:26:12.202Z,99912.23
2019-01-10T05:28:41.957Z,99920.55
2019-01-10T05:31:11.810Z,99928.09
2019-01-10T05:33:41.982Z,99923.61
2019-01-10T05:36:11.925Z,99933.10
2019-01-10T05:38:41.765Z,99932.93
2019-01-10T05:41:11.691Z,99931.29
2019-01-10T05:43:41.571Z,99933.80
2019-01-10T05:46:11.281Z,99933.72
2019-01-10T05:48:47.300Z,99943.25
2019-01-10T05:51:12.763Z,99956.58
2019-01-10T05:53:42.460Z,99967.14
2019-01-10T05:56:15.558Z,99970.86
2019-01-10T05:58:44.611Z,99964.97
2019-01-10T06:01:15.541Z,99972.07
2019-01-10T06:03:53.251Z,99968.97
2019-01-10T06:06:18.201Z,99972.66
2019-01-10T06:08:48.209Z,99969.90
2019-01-10T06:11:18.092Z,99968.03
2019-01-10T06:13:47.964Z,99981.88
2019-01-10T06:16:17.959Z,99982.72
2019-01-10T06:18:48.107Z,99992.89
2019-01-10T06:21:18.098Z,100000.31
2019-01-10T06:23:47.830Z,100009.37
2019-01-10T06:26:17.605Z,100008.36
2019-01-10T06:28:47.533Z,100019.25
2019-01-10T06:31:17.731Z,100027.48
2019-01-10T06:33:47.782Z,100032.58
2019-01-10T06:36:17.755Z,100041.70
2019-01-10T06:38:47.539Z,100046.11
2019-01-10T06:41:17.688Z,100044.13
2019-01-10T06:43:47.354Z,100049.77
2019-01-10T06:46:17.180Z,100061.94
2019-01-10T06:48:48.305Z,100064.08
2019-01-10T06:51:18.122Z,100075.86
2019-01-10T06:53:47.880Z,100080.56
2019-01-10T06:56:18.014Z,100084.05
2019-01-10T06:58:47.912Z,100092.64
2019-01-10T07:01:17.875Z,100094.91
2019-01-10T07:03:47.924Z,100101.84
2019-01-10T07:06:17.795Z,100098.23
2019-01-10T07:08:47.707Z,100091.03
2019-01-10T07:11:17.637Z,100090.80
2019-01-10T07:13:48.773Z,100082.70
2019-01-10T07:16:18.588Z,100094.87
2019-01-10T07:18:48.503Z,100106.84
2019-01-10T07:21:18.726Z,100106.39
2019-01-10T07:23:48.974Z,100116.05
2019-01-10T07:26:18.893Z,100124.56
2019-01-10T07:28:48.644Z,100129.05
2019-01-10T07:31:28.042Z,100119.68
2019-01-10T07:34:04.347Z,100117.27
2019-01-10T07:36:35.473Z,100129.47
2019-01-10T07:39:08.231Z,100136.66
2019-01-10T07:41:41.677Z,100143.33
2019-01-10T07:44:11.215Z,100153.05
2019-01-10T07:46:46.715Z,100162.13
2019-01-10T07:49:16.491Z,100171.03
2019-01-10T07:51:46.375Z,100169.58
2019-01-10T07:54:16.186Z,100171.53
2019-01-10T07:56:45.960Z,100173.81
2019-01-10T07:59:15.852Z,100173.88
2019-01-10T08:01:45.608Z,100171.32
2019-01-10T08:04:15.595Z,100162.67
2019-01-10T08:06:45.472Z,100164.23
2019-01-10T08:09:15.518Z,100166.65
2019-01-10T08:11:45.555Z,100178.62
2019-01-10T08:14:15.314Z,100183.63
2019-01-10T08:16:44.963Z,100186.23
2019-01-10T08:19:14.756Z,100190.88
2019-01-10T08:21:46.577Z,100188.03
2019-01-10T08:24:16.513Z,100192.76
2019-01-10T08:26:46.401Z,100191.42
2019-01-10T08:29:16.186Z,100189.19
2019-01-10T08:31:47.163Z,100188.33
2019-01-10T08:34:16.945Z,100195.81
2019-01-10T08:36:46.650Z,100199.34
2019-01-10T08:39:18.011Z,100202.66
2019-01-10T08:41:47.713Z,100212.95
2019-01-10T08:44:17.675Z,100222.34
2019-01-10T08:46:47.693Z,100217.72
2019-01-10T08:49:17.261Z,100231.16
2019-01-10T08:51:47.178Z,100232.63
2019-01-10T08:54:18.330Z,100233.69
2019-01-10T08:56:48.317Z,100235.88
2019-01-10T08:59:19.088Z,100238.84
2019-01-10T09:01:50.424Z,100242.42
2019-01-10T09:04:20.115Z,100243.00
2019-01-10T09:06:51.188Z,100245.96
2019-01-10T09:09:22.381Z,100252.34
2019-01-10T09:11:52.135Z,100256.58
2019-01-10T09:14:22.178Z,100258.93
2019-01-10T09:16:52.116Z,100243.25
2019-01-10T09:19:21.794Z,100231.56
2019-01-10T09:21:51.656Z,100231.78
2019-01-10T09:24:21.472Z,100233.02
2019-01-10T09:26:51.336Z,100221.28
2019-01-10T09:29:21.206Z,100224.30
2019-01-10T09:31:51.062Z,100222.29
2019-01-10T09:34:24.820Z,100216.44
2019-01-10T09:36:53.666Z,100222.38
2019-01-10T09:39:24.910Z,100220.02
2019-01-10T09:41:54.627Z,100218.07
2019-01-10T09:44:25.587Z,100219.07
2019-01-10T09:46:55.268Z,100212.91
2019-01-10T09:49:25.073Z,100202.37
2019-01-10T09:51:54.844Z,100197.67
2019-01-10T09:54:24.712Z,100204.28
2019-01-10T09:56:54.540Z,100212.29
2019-01-10T09:59:24.509Z,100217.90
2019-01-10T10:01:54.241Z,100224.92
2019-01-10T10:04:24.305Z,100214.64
2019-01-10T10:06:54.250Z,100206.00
2019-01-10T10:09:24.183Z,100209.34
2019-01-10T10:11:53.909Z,100213.15
2019-01-10T10:14:24.006Z,100211.69
2019-01-10T10:16:53.745Z,100199.38
2019-01-10T10:19:23.673Z,100196.45
2019-01-10T10:21:53.583Z,100195.07
2019-01-10T10:24:23.718Z,100199.23
2019-01-10T10:26:53.530Z,100197.87
2019-01-10T10:29:23.522Z,100202.00
2019-01-10T10:31:53.474Z,100202.13
2019-01-10T10:34:23.282Z,100211.98
2019-01-10T10:36:53.215Z,100207.65
2019-01-10T10:39:22.921Z,100209.05
2019-01-10T10:41:54.299Z,100223.45
2019-01-10T10:44:24.094Z,100215.64
2019-01-10T10:46:54.012Z,100213.81
2019-01-10T10:49:23.709Z,100211.05
2019-01-10T10:51:53.760Z,100205.75
2019-01-10T10:54:23.624Z,100200.11
2019-01-10T10:56:53.371Z,100198.96
2019-01-10T10:59:23.207Z,100198.58
2019-01-10T11:01:52.984Z,100205.72
2019-01-10T11:04:22.906Z,100204.25
2019-01-10T11:06:52.809Z,100208.41
2019-01-10T11:09:22.714Z,100208.53
2019-01-10T11:11:52.446Z,100211.92
2019-01-10T11:14:22.335Z,100211.00
2019-01-10T11:16:52.580Z,100198.28
2019-01-10T11:19:22.321Z,100202.71
2019-01-10T11:21:52.136Z,100212.48
2019-01-10T11:24:21.918Z,100222.80
2019-01-10T11:26:53.486Z,100221.55
2019-01-10T11:29:23.668Z,100218.14
2019-01-10T11:31:53.395Z,100215.38
2019-01-10T11:34:23.240Z,100217.78
2019-01-10T11:36:53.216Z,100211.96
2019-01-10T11:39:22.939Z,100214.75
2019-01-10T11:41:52.667Z,100210.53
2019-01-10T11:44:22.396Z,100220.25
2019-01-10T11:46:52.303Z,100224.52
2019-01-10T11:49:21.996Z,100224.60
2019-01-10T11:51:52.972Z,100227.35
2019-01-10T11:54:22.670Z,100223.10
2019-01-10T11:56:52.368Z,100229.69
2019-01-10T11:59:22.240Z,100224.34
2019-01-10T12:01:52.203Z,100223.67
2019-01-10T12:04:22.381Z,100205.23
2019-01-10T12:06:52.121Z,100215.41
2019-01-10T12:09:22.172Z,100215.70
2019-01-10T12:11:52.026Z,100211.02
2019-01-10T12:14:21.689Z,100197.77
2019-01-10T12:16:51.608Z,100194.69
2019-01-10T12:19:21.500Z,100198.94
2019-01-10T12:21:51.334Z,100200.09
2019-01-10T12:24:21.297Z,100210.62
2019-01-10T12:26:51.199Z,100224.72
2019-01-10T12:29:21.184Z,100229.94
2019-01-10T12:31:50.913Z,100239.06
2019-01-10T12:34:20.840Z,100238.30
2019-01-10T12:36:50.495Z,100234.69
2019-01-10T12:39:20.747Z,100225.00
2019-01-10T12:41:51.724Z,100228.77
2019-01-10T12:44:21.586Z,100226.58
2019-01-10T12:46:51.509Z,100228.54
2019-01-10T12:49:21.266Z,100232.17
2019-01-10T12:51:50.933Z,100234.53
2019-01-10T12:54:21.855Z,100231.56
2019-01-10T12:56:53.340Z,100229.83
2019-01-10T12:59:23.278Z,100228.92
2019-01-10T13:01:53.252Z,100222.19
2019-01-10T13:04:23.243Z,100204.90
2019-01-10T13:06:53.002Z,100209.09
2019-01-10T13:09:22.915Z,100216.36
2019-01-10T13:11:52.845Z,100212.50
2019-01-10T13:14:22.809Z,100219.84
2019-01-10T13:16:52.558Z,100214.46
2019-01-10T13:19:22.460Z,100225.22
2019-01-10T13:21:52.338Z,100224.16
2019-01-10T13:24:22.110Z,100212.95
2019-01-10T13:26:51.938Z,100212.86
2019-01-10T13:29:21.998Z,100195.38
2019-01-10T13:31:51.931Z,100206.19
2019-01-10T13:34:21.993Z,100210.44
2019-01-10T13:36:53.270Z,100226.72
2019-01-10T13:39:23.153Z,100223.98
2019-01-10T13:41:53.053Z,100228.84
2019-01-10T13:44:23.930Z,100224.83
2019-01-10T13:46:55.674Z,100216.48
2019-01-10T13:49:25.168Z,100229.22
2019-01-10T13:51:56.225Z,100231.27
2019-01-10T13:54:26.419Z,100228.84
2019-01-10T13:56:56.363Z,100222.86
2019-01-10T13:59:26.442Z,100218.83
2019-01-10T14:01:56.391Z,100225.88
2019-01-10T14:04:26.215Z,100219.73
2019-01-10T14:06:56.069Z,100215.14
2019-01-10T14:09:25.819Z,100210.50
2019-01-10T14:11:55.844Z,100205.38
2019-01-10T14:14:25.904Z,100205.89
2019-01-10T14:17:01.477Z,100192.63
2019-01-10T14:19:27.750Z,100181.11
2019-01-10T14:21:57.716Z,100170.73
2019-01-10T14:24:27.692Z,100177.38
2019-01-10T14:26:57.543Z,100185.16
2019-01-10T14:29:27.486Z,100194.02
2019-01-10T14:31:57.321Z,100183.25
2019-01-10T14:34:27.122Z,100190.40
2019-01-10T14:36:57.041Z,100192.20
2019-01-10T14:39:27.036Z,100187.89
2019-01-10T14:41:56.832Z,100195.22
2019-01-10T14:44:26.603Z,100197.13
2019-01-10T14:46:56.479Z,100201.73
2019-01-10T14:49:26.227Z,100204.03
2019-01-10T14:51:55.955Z,100208.40
2019-01-10T14:54:26.120Z,100215.55
2019-01-10T14:56:58.050Z,100212.88
2019-01-10T14:59:29.419Z,100219.86
2019-01-10T15:01:59.406Z,100205.48
2019-01-10T15:04:29.325Z,100211.83
2019-01-10T15:06:59.471Z,100205.08
2019-01-10T15:09:29.146Z,100199.55
2019-01-10T15:11:58.955Z,100207.34
2019-01-10T15:14:30.123Z,100207.11
2019-01-10T15:16:59.932Z,100194.94
2019-01-10T15:19:29.729Z,100184.33
2019-01-10T15:21:59.664Z,100204.07
2019-01-10T15:24:29.511Z,100205.90
2019-01-10T15:26:59.281Z,100220.11
2019-01-10T15:29:29.124Z,100217.48
2019-01-10T15:31:59.064Z,100206.95
2019-01-10T15:34:28.911Z,100202.43
2019-01-10T15:36:58.776Z,100192.21
2019-01-10T15:39:28.568Z,100192.87
2019-01-10T15:41:58.462Z,100171.39
2019-01-10T15:44:29.260Z,100181.62
2019-01-10T15:46:59.051Z,100181.47
2019-01-10T15:49:29.050Z,100178.52
2019-01-10T15:51:58.843Z,100178.22
2019-01-10T15:54:28.753Z,100169.89
2019-01-10T15:57:00.721Z,100174.71
2019-01-10T15:59:30.134Z,100178.45
2019-01-10T16:01:59.949Z,100199.94
2019-01-10T16:04:29.858Z,100173.30
2019-01-10T16:06:59.654Z,100164.19
2019-01-10T16:09:29.667Z,100169.80
2019-01-10T16:11:59.626Z,100180.86
2019-01-10T16:14:29.441Z,100168.99
2019-01-10T16:16:59.356Z,100173.14
2019-01-10T16:19:29.368Z,100179.03
2019-01-10T16:21:59.242Z,100170.86
2019-01-10T16:24:28.998Z,100171.93
2019-01-10T16:26:58.928Z,100177.41
2019-01-10T16:29:30.202Z,100169.30
2019-01-10T16:32:00.188Z,100166.37
2019-01-10T16:34:30.218Z,100147.80
2019-01-10T16:37:00.077Z,100156.14
2019-01-10T16:39:30.148Z,100158.87
2019-01-10T16:42:00.158Z,100150.70
2019-01-10T16:44:31.355Z,100147.42
2019-01-10T16:47:02.496Z,100153.17
2019-01-10T16:49:32.390Z,100173.27
2019-01-10T16:52:03.636Z,100175.45
2019-01-10T16:54:33.520Z,100143.99
2019-01-10T16:57:03.441Z,100146.66
2019-01-10T16:59:33.314Z,100153.38
2019-01-10T17:02:02.854Z,100152.09
2019-01-10T17:04:32.563Z,100148.91
2019-01-10T17:07:02.664Z,100135.19
2019-01-10T17:09:32.565Z,100138.53
2019-01-10T17:12:02.426Z,100137.69
2019-01-10T17:14:57.706Z,100137.53
2019-01-10T17:18:04.838Z,100127.45
2019-01-10T17:21:02.326Z,100150.80
2019-01-10T17:27:09.291Z,100123.16
2019-01-10T17:30:11.655Z,100125.45
2019-01-10T17:33:35.966Z,100129.44
2019-01-10T17:39:58.990Z,100121.81
2019-01-10T17:42:43.793Z,100112.25
2019-01-10T17:45:50.991Z,100114.60
2019-01-10T17:52:11.461Z,100107.92
2019-01-10T17:54:47.268Z,100124.45
2019-01-10T17:57:59.044Z,100138.14
2019-01-10T18:00:58.594Z,100144.42
2019-01-10T18:03:55.683Z,100152.66
2019-01-10T18:10:23.076Z,100160.77
2019-01-10T18:12:59.772Z,100154.61
2019-01-10T18:19:12.285Z,100156.95
2019-01-10T18:22:01.106Z,100137.31
2019-01-10T18:25:04.768Z,100141.30
2019-01-10T18:28:13.570Z,100144.47
2019-01-10T18:31:17.016Z,100138.13
2019-01-10T18:34:43.467Z,100131.75
2019-01-10T18:37:58.448Z,100122.52
2019-01-10T18:40:56.623Z,100131.20
2019-01-10T18:44:02.545Z,100122.45
2019-01-10T18:47:25.994Z,100129.46
2019-01-10T18:50:36.451Z,100134.09
2019-01-10T18:59:28.062Z,100126.23
2019-01-10T19:02:40.288Z,100129.67
2019-01-10T19:05:50.660Z,100125.81
2019-01-10T19:08:27.698Z,100127.93
2019-01-10T19:11:36.743Z,100120.51
2019-01-10T19:18:03.140Z,100120.75
2019-01-10T19:20:58.058Z,100122.84
2019-01-10T19:27:20.136Z,100135.84
2019-01-10T19:30:20.430Z,100128.69
2019-01-10T19:33:32.776Z,100128.34
2019-01-10T19:42:38.106Z,100126.52
2019-01-10T19:45:09.320Z,100124.14
2019-01-10T19:47:39.501Z,100122.55
2019-01-10T19:50:11.347Z,100121.56
2019-01-10T19:52:44.437Z,100122.66
2019-01-10T19:55:15.643Z,100121.44
2019-01-10T19:57:45.543Z,100114.01
2019-01-10T20:00:21.673Z,100116.20
2019-01-10T20:02:51.624Z,100113.25
2019-01-10T20:05:21.344Z,100112.36
2019-01-10T20:07:51.216Z,100106.06
2019-01-10T20:10:21.071Z,100107.27
2019-01-10T20:12:51.082Z,100115.80
2019-01-10T20:15:21.362Z,100148.68
2019-01-10T20:17:51.371Z,100211.39
2019-01-10T20:20:24.601Z,100191.69
2019-01-10T20:22:54.619Z,100177.91
2019-01-10T20:25:24.645Z,100175.44
2019-01-10T20:27:54.415Z,100175.77
2019-01-10T20:30:24.419Z,100148.07
2019-01-10T20:32:54.343Z,100149.81
2019-01-10T20:35:24.372Z,100138.70
2019-01-10T20:37:54.165Z,100143.41
2019-01-10T20:40:24.178Z,100145.00
2019-01-10T20:42:55.322Z,100162.47
2019-01-10T20:45:25.148Z,100160.52
2019-01-10T20:47:55.408Z,100168.33
2019-01-10T20:50:25.443Z,100163.75
2019-01-10T20:52:55.191Z,100182.23
2019-01-10T20:55:26.037Z,100155.22
2019-01-10T20:57:56.183Z,100162.25
2019-01-10T21:00:27.452Z,100153.30
2019-01-10T21:02:57.096Z,100157.66
2019-01-10T21:05:27.083Z,100161.09
2019-01-10T21:07:57.212Z,100166.56
2019-01-10T21:10:27.232Z,100156.20
2019-01-10T21:12:57.084Z,100160.93
2019-01-10T21:15:30.011Z,100168.33
2019-01-10T21:17:59.969Z,100167.23
2019-01-10T21:20:29.918Z,100172.22
2019-01-10T21:23:00.419Z,100176.36
2019-01-10T21:25:30.268Z,100165.06
2019-01-10T21:28:00.729Z,100168.95
2019-01-10T21:30:30.461Z,100169.80
2019-01-10T21:33:00.093Z,100166.40
2019-01-10T21:35:30.111Z,100167.51
2019-01-10T21:37:59.970Z,100166.41
2019-01-10T21:40:31.385Z,100166.91
2019-01-10T21:43:01.294Z,100172.53
2019-01-10T21:45:31.582Z,100159.81
2019-01-10T21:48:01.465Z,100158.80
2019-01-10T21:50:31.242Z,100158.00
2019-01-10T21:53:00.866Z,100165.94
2019-01-10T21:55:30.996Z,100164.98
2019-01-10T21:58:00.787Z,100165.13
2019-01-10T22:00:31.845Z,100183.39
2019-01-10T22:03:02.799Z,100158.52
2019-01-10T22:05:32.609Z,100156.13
2019-01-10T22:08:04.916Z,100158.41
2019-01-10T22:10:35.199Z,100156.46
2019-01-10T22:13:05.507Z,100164.77
2019-01-10T22:15:35.407Z,100167.51
2019-01-10T22:18:05.148Z,100154.14
2019-01-10T22:20:34.902Z,100153.16
2019-01-10T22:23:05.206Z,100148.90
2019-01-10T22:25:35.014Z,100151.74
2019-01-10T22:28:04.962Z,100143.47
2019-01-10T22:30:34.827Z,100161.69
2019-01-10T22:33:04.967Z,100168.25
2019-01-10T22:35:35.006Z,100175.81
2019-01-10T22:38:04.767Z,100178.98
2019-01-10T22:40:34.893Z,100168.20
2019-01-10T22:43:06.088Z,100174.54
2019-01-10T22:45:35.968Z,100166.45
2019-01-10T22:48:06.793Z,100169.81
2019-01-10T22:50:36.562Z,100176.41
2019-01-10T22:53:06.966Z,100180.09
2019-01-10T22:55:36.974Z,100182.77
2019-01-10T22:58:06.761Z,100195.83
2019-01-10T23:01:25.276Z,100196.48
2019-01-10T23:03:55.200Z,100195.50
2019-01-10T23:06:25.067Z,100198.11
2019-01-10T23:08:54.793Z,100204.66
2019-01-10T23:11:25.403Z,100199.37
2019-01-10T23:13:57.062Z,100192.09
2019-01-10T23:16:27.370Z,100190.84
2019-01-10T23:18:57.331Z,100204.36
2019-01-10T23:21:27.476Z,100205.72
2019-01-10T23:24:26.775Z,100202.83
2019-01-10T23:26:54.443Z,100205.36
2019-01-10T23:29:27.074Z,100204.45
2019-01-10T23:31:56.908Z,100187.95
2019-01-10T23:34:26.620Z,100187.88
2019-01-10T23:36:56.804Z,100185.13
2019-01-10T23:39:26.923Z,100187.25
2019-01-10T23:41:58.142Z,100198.10
2019-01-10T23:44:27.982Z,100198.10
2019-01-10T23:46:57.717Z,100206.70
2019-01-10T23:49:27.351Z,100207.64
2019-01-10T23:51:57.109Z,100206.08
2019-01-10T23:54:27.128Z,100216.81
2019-01-10T23:56:56.904Z,100224.06
2019-01-10T23:59:26.850Z,100219.77
